sensor_id;sensor_type;location;lat;lon;timestamp;temperature;humidity
31675;DHT22;18276;45.520;11.018;2023-08-24T00:01:43;28.70;57.50
31675;DHT22;18276;45.520;11.018;2023-08-24T00:04:10;28.70;57.60
31675;DHT22;18276;45.520;11.018;2023-08-24T00:06:37;28.70;57.50
31675;DHT22;18276;45.520;11.018;2023-08-24T00:09:04;28.70;57.60
31675;DHT22;18276;45.520;11.018;2023-08-24T00:11:32;28.60;57.40
31675;DHT22;18276;45.520;11.018;2023-08-24T00:13:59;28.60;57.50
31675;DHT22;18276;45.520;11.018;2023-08-24T00:16:26;28.60;57.50
31675;DHT22;18276;45.520;11.018;2023-08-24T00:18:53;28.60;57.50
31675;DHT22;18276;45.520;11.018;2023-08-24T00:21:20;28.60;57.60
31675;DHT22;18276;45.520;11.018;2023-08-24T00:23:50;28.60;57.60
31675;DHT22;18276;45.520;11.018;2023-08-24T00:26:17;28.60;57.60
31675;DHT22;18276;45.520;11.018;2023-08-24T00:28:44;28.60;57.70
31675;DHT22;18276;45.520;11.018;2023-08-24T00:31:12;28.60;57.80
31675;DHT22;18276;45.520;11.018;2023-08-24T00:33:39;28.50;57.80
31675;DHT22;18276;45.520;11.018;2023-08-24T00:36:07;28.50;58.00
31675;DHT22;18276;45.520;11.018;2023-08-24T00:38:34;28.50;58.00
31675;DHT22;18276;45.520;11.018;2023-08-24T00:41:01;28.50;57.90
31675;DHT22;18276;45.520;11.018;2023-08-24T00:43:28;28.50;58.00
31675;DHT22;18276;45.520;11.018;2023-08-24T00:45:55;28.40;58.00
31675;DHT22;18276;45.520;11.018;2023-08-24T00:48:23;28.40;58.00
31675;DHT22;18276;45.520;11.018;2023-08-24T00:50:57;28.40;58.00
31675;DHT22;18276;45.520;11.018;2023-08-24T00:53:26;28.40;58.10
31675;DHT22;18276;45.520;11.018;2023-08-24T00:55:53;28.40;58.10
31675;DHT22;18276;45.520;11.018;2023-08-24T00:58:20;28.40;58.20
31675;DHT22;18276;45.520;11.018;2023-08-24T01:00:51;28.30;58.10
31675;DHT22;18276;45.520;11.018;2023-08-24T01:03:21;28.30;58.20
31675;DHT22;18276;45.520;11.018;2023-08-24T01:05:48;28.30;58.30
31675;DHT22;18276;45.520;11.018;2023-08-24T01:08:15;28.30;58.30
31675;DHT22;18276;45.520;11.018;2023-08-24T01:13:26;28.20;58.40
31675;DHT22;18276;45.520;11.018;2023-08-24T01:16:01;28.20;59.00
31675;DHT22;18276;45.520;11.018;2023-08-24T01:18:30;28.20;58.50
31675;DHT22;18276;45.520;11.018;2023-08-24T01:20:58;28.20;59.20
31675;DHT22;18276;45.520;11.018;2023-08-24T01:26:14;28.20;58.70
31675;DHT22;18276;45.520;11.018;2023-08-24T01:28:45;28.20;59.30
31675;DHT22;18276;45.520;11.018;2023-08-24T01:31:15;28.20;58.70
31675;DHT22;18276;45.520;11.018;2023-08-24T01:33:44;28.20;58.70
31675;DHT22;18276;45.520;11.018;2023-08-24T01:36:12;28.10;58.70
31675;DHT22;18276;45.520;11.018;2023-08-24T01:38:39;28.10;58.80
31675;DHT22;18276;45.520;11.018;2023-08-24T01:41:25;28.10;58.90
31675;DHT22;18276;45.520;11.018;2023-08-24T01:43:53;28.10;59.00
31675;DHT22;18276;45.520;11.018;2023-08-24T01:46:22;28.10;59.10
31675;DHT22;18276;45.520;11.018;2023-08-24T01:48:49;28.00;59.00
31675;DHT22;18276;45.520;11.018;2023-08-24T01:51:16;28.00;59.00
31675;DHT22;18276;45.520;11.018;2023-08-24T01:53:43;28.00;59.10
31675;DHT22;18276;45.520;11.018;2023-08-24T01:56:11;28.00;59.20
31675;DHT22;18276;45.520;11.018;2023-08-24T01:58:39;28.00;59.20
31675;DHT22;18276;45.520;11.018;2023-08-24T02:01:06;27.90;59.20
31675;DHT22;18276;45.520;11.018;2023-08-24T02:03:34;27.90;59.20
31675;DHT22;18276;45.520;11.018;2023-08-24T02:06:02;27.90;59.20
31675;DHT22;18276;45.520;11.018;2023-08-24T02:08:29;27.90;59.40
31675;DHT22;18276;45.520;11.018;2023-08-24T02:10:56;27.90;59.40
31675;DHT22;18276;45.520;11.018;2023-08-24T02:13:24;27.80;59.30
31675;DHT22;18276;45.520;11.018;2023-08-24T02:16:00;27.80;59.30
31675;DHT22;18276;45.520;11.018;2023-08-24T02:18:27;27.90;59.40
31675;DHT22;18276;45.520;11.018;2023-08-24T02:20:54;27.80;59.40
31675;DHT22;18276;45.520;11.018;2023-08-24T02:23:21;27.80;59.40
31675;DHT22;18276;45.520;11.018;2023-08-24T02:25:48;27.80;59.40
31675;DHT22;18276;45.520;11.018;2023-08-24T02:28:15;27.80;59.40
31675;DHT22;18276;45.520;11.018;2023-08-24T02:30:42;27.80;59.40
31675;DHT22;18276;45.520;11.018;2023-08-24T02:33:09;27.80;59.40
31675;DHT22;18276;45.520;11.018;2023-08-24T02:35:36;27.80;59.40
31675;DHT22;18276;45.520;11.018;2023-08-24T02:38:03;27.80;59.40
31675;DHT22;18276;45.520;11.018;2023-08-24T02:40:30;27.70;59.40
31675;DHT22;18276;45.520;11.018;2023-08-24T02:42:57;27.70;59.40
31675;DHT22;18276;45.520;11.018;2023-08-24T02:45:25;27.70;59.40
31675;DHT22;18276;45.520;11.018;2023-08-24T02:47:53;27.70;59.50
31675;DHT22;18276;45.520;11.018;2023-08-24T02:50:20;27.70;59.60
31675;DHT22;18276;45.520;11.018;2023-08-24T02:52:46;27.70;59.60
31675;DHT22;18276;45.520;11.018;2023-08-24T02:55:13;27.70;59.60
31675;DHT22;18276;45.520;11.018;2023-08-24T02:57:41;27.70;59.70
31675;DHT22;18276;45.520;11.018;2023-08-24T03:00:08;27.70;59.70
31675;DHT22;18276;45.520;11.018;2023-08-24T03:02:36;27.70;59.60
31675;DHT22;18276;45.520;11.018;2023-08-24T03:05:03;27.70;59.70
31675;DHT22;18276;45.520;11.018;2023-08-24T03:07:31;27.60;59.60
31675;DHT22;18276;45.520;11.018;2023-08-24T03:09:58;27.60;59.60
31675;DHT22;18276;45.520;11.018;2023-08-24T03:12:25;27.60;59.70
31675;DHT22;18276;45.520;11.018;2023-08-24T03:14:52;27.60;59.80
31675;DHT22;18276;45.520;11.018;2023-08-24T03:17:20;27.60;59.80
31675;DHT22;18276;45.520;11.018;2023-08-24T03:19:47;27.50;59.80
31675;DHT22;18276;45.520;11.018;2023-08-24T03:22:14;27.50;59.90
31675;DHT22;18276;45.520;11.018;2023-08-24T03:24:41;27.50;60.00
31675;DHT22;18276;45.520;11.018;2023-08-24T03:27:08;27.50;60.20
31675;DHT22;18276;45.520;11.018;2023-08-24T03:29:35;27.50;60.10
31675;DHT22;18276;45.520;11.018;2023-08-24T03:32:02;27.50;60.20
31675;DHT22;18276;45.520;11.018;2023-08-24T03:34:29;27.40;60.20
31675;DHT22;18276;45.520;11.018;2023-08-24T03:36:57;27.40;60.20
31675;DHT22;18276;45.520;11.018;2023-08-24T03:39:25;27.40;60.20
31675;DHT22;18276;45.520;11.018;2023-08-24T03:41:52;27.40;60.20
31675;DHT22;18276;45.520;11.018;2023-08-24T03:44:18;27.40;60.40
31675;DHT22;18276;45.520;11.018;2023-08-24T03:46:45;27.40;60.40
31675;DHT22;18276;45.520;11.018;2023-08-24T03:49:14;27.40;60.40
31675;DHT22;18276;45.520;11.018;2023-08-24T03:51:41;27.40;60.40
31675;DHT22;18276;45.520;11.018;2023-08-24T03:54:08;27.40;60.50
31675;DHT22;18276;45.520;11.018;2023-08-24T03:56:35;27.40;60.50
31675;DHT22;18276;45.520;11.018;2023-08-24T03:59:02;27.40;61.40
31675;DHT22;18276;45.520;11.018;2023-08-24T04:01:29;27.40;60.50
31675;DHT22;18276;45.520;11.018;2023-08-24T04:03:56;27.40;60.50
31675;DHT22;18276;45.520;11.018;2023-08-24T04:06:28;27.40;60.50
31675;DHT22;18276;45.520;11.018;2023-08-24T04:08:55;27.30;60.40
31675;DHT22;18276;45.520;11.018;2023-08-24T04:11:22;27.40;60.50
31675;DHT22;18276;45.520;11.018;2023-08-24T04:13:49;27.40;60.60
31675;DHT22;18276;45.520;11.018;2023-08-24T04:16:18;27.40;60.50
31675;DHT22;18276;45.520;11.018;2023-08-24T04:18:45;27.30;60.40
31675;DHT22;18276;45.520;11.018;2023-08-24T04:21:12;27.30;60.30
31675;DHT22;18276;45.520;11.018;2023-08-24T04:23:38;27.30;60.50
31675;DHT22;18276;45.520;11.018;2023-08-24T04:26:11;27.30;60.50
31675;DHT22;18276;45.520;11.018;2023-08-24T04:28:39;27.30;60.50
31675;DHT22;18276;45.520;11.018;2023-08-24T04:31:06;27.30;60.50
31675;DHT22;18276;45.520;11.018;2023-08-24T04:33:33;27.30;60.70
31675;DHT22;18276;45.520;11.018;2023-08-24T04:36:01;27.30;60.70
31675;DHT22;18276;45.520;11.018;2023-08-24T04:38:29;27.30;61.40
31675;DHT22;18276;45.520;11.018;2023-08-24T04:40:56;27.30;60.60
31675;DHT22;18276;45.520;11.018;2023-08-24T04:43:23;27.40;60.60
31675;DHT22;18276;45.520;11.018;2023-08-24T04:45:51;27.30;60.50
31675;DHT22;18276;45.520;11.018;2023-08-24T04:48:22;27.40;60.50
31675;DHT22;18276;45.520;11.018;2023-08-24T04:50:49;27.40;60.40
31675;DHT22;18276;45.520;11.018;2023-08-24T04:53:17;27.50;60.50
31675;DHT22;18276;45.520;11.018;2023-08-24T04:55:44;27.50;60.40
31675;DHT22;18276;45.520;11.018;2023-08-24T04:58:11;27.60;60.30
31675;DHT22;18276;45.520;11.018;2023-08-24T05:00:38;27.60;60.10
31675;DHT22;18276;45.520;11.018;2023-08-24T05:03:06;27.70;60.00
31675;DHT22;18276;45.520;11.018;2023-08-24T05:05:34;27.80;59.90
31675;DHT22;18276;45.520;11.018;2023-08-24T05:08:02;27.80;59.70
31675;DHT22;18276;45.520;11.018;2023-08-24T05:10:30;27.90;59.60
31675;DHT22;18276;45.520;11.018;2023-08-24T05:12:57;28.00;59.50
31675;DHT22;18276;45.520;11.018;2023-08-24T05:15:24;28.20;59.50
31675;DHT22;18276;45.520;11.018;2023-08-24T05:17:51;28.40;59.20
31675;DHT22;18276;45.520;11.018;2023-08-24T05:20:22;28.60;58.90
31675;DHT22;18276;45.520;11.018;2023-08-24T05:22:49;28.80;58.60
31675;DHT22;18276;45.520;11.018;2023-08-24T05:25:16;29.00;58.30
31675;DHT22;18276;45.520;11.018;2023-08-24T05:27:45;29.20;58.20
31675;DHT22;18276;45.520;11.018;2023-08-24T05:30:12;29.40;57.80
31675;DHT22;18276;45.520;11.018;2023-08-24T05:32:42;29.80;57.40
31675;DHT22;18276;45.520;11.018;2023-08-24T05:35:09;30.20;56.90
31675;DHT22;18276;45.520;11.018;2023-08-24T05:37:37;30.50;56.20
31675;DHT22;18276;45.520;11.018;2023-08-24T05:40:04;30.80;55.50
31675;DHT22;18276;45.520;11.018;2023-08-24T05:42:32;31.20;55.10
31675;DHT22;18276;45.520;11.018;2023-08-24T05:44:59;31.40;54.40
31675;DHT22;18276;45.520;11.018;2023-08-24T05:47:25;31.70;53.90
31675;DHT22;18276;45.520;11.018;2023-08-24T05:49:52;32.00;53.50
31675;DHT22;18276;45.520;11.018;2023-08-24T05:52:19;32.20;53.10
31675;DHT22;18276;45.520;11.018;2023-08-24T05:54:46;32.40;52.70
31675;DHT22;18276;45.520;11.018;2023-08-24T05:57:13;32.70;52.40
31675;DHT22;18276;45.520;11.018;2023-08-24T05:59:40;33.00;51.80
31675;DHT22;18276;45.520;11.018;2023-08-24T06:02:07;33.30;51.10
31675;DHT22;18276;45.520;11.018;2023-08-24T06:04:34;33.50;50.80
31675;DHT22;18276;45.520;11.018;2023-08-24T06:07:01;33.90;50.50
31675;DHT22;18276;45.520;11.018;2023-08-24T06:09:27;34.20;50.00
31675;DHT22;18276;45.520;11.018;2023-08-24T06:11:54;34.40;48.90
31675;DHT22;18276;45.520;11.018;2023-08-24T06:14:21;34.60;48.60
31675;DHT22;18276;45.520;11.018;2023-08-24T06:16:49;35.00;48.60
31675;DHT22;18276;45.520;11.018;2023-08-24T06:19:15;35.40;48.10
31675;DHT22;18276;45.520;11.018;2023-08-24T06:21:42;35.80;47.50
31675;DHT22;18276;45.520;11.018;2023-08-24T06:24:09;36.20;47.10
31675;DHT22;18276;45.520;11.018;2023-08-24T06:26:36;36.50;47.00
31675;DHT22;18276;45.520;11.018;2023-08-24T06:29:03;36.80;46.10
31675;DHT22;18276;45.520;11.018;2023-08-24T06:31:31;37.10;45.80
31675;DHT22;18276;45.520;11.018;2023-08-24T06:33:59;37.40;45.20
31675;DHT22;18276;45.520;11.018;2023-08-24T06:36:26;37.80;44.70
31675;DHT22;18276;45.520;11.018;2023-08-24T06:38:53;38.10;44.50
31675;DHT22;18276;45.520;11.018;2023-08-24T06:41:20;38.40;43.90
31675;DHT22;18276;45.520;11.018;2023-08-24T06:43:47;38.60;43.30
31675;DHT22;18276;45.520;11.018;2023-08-24T06:46:14;38.90;42.70
31675;DHT22;18276;45.520;11.018;2023-08-24T06:48:41;39.20;42.60
31675;DHT22;18276;45.520;11.018;2023-08-24T06:51:12;39.50;42.20
31675;DHT22;18276;45.520;11.018;2023-08-24T06:53:38;39.90;42.00
31675;DHT22;18276;45.520;11.018;2023-08-24T06:56:05;40.20;41.50
31675;DHT22;18276;45.520;11.018;2023-08-24T06:58:32;40.50;40.30
31675;DHT22;18276;45.520;11.018;2023-08-24T07:00:59;40.70;40.20
31675;DHT22;18276;45.520;11.018;2023-08-24T07:03:26;41.00;39.70
31675;DHT22;18276;45.520;11.018;2023-08-24T07:05:53;41.40;39.70
31675;DHT22;18276;45.520;11.018;2023-08-24T07:08:20;41.70;39.20
31675;DHT22;18276;45.520;11.018;2023-08-24T07:10:47;42.10;38.90
31675;DHT22;18276;45.520;11.018;2023-08-24T07:13:14;42.40;38.30
31675;DHT22;18276;45.520;11.018;2023-08-24T07:15:42;42.60;38.00
31675;DHT22;18276;45.520;11.018;2023-08-24T07:18:09;42.60;37.50
31675;DHT22;18276;45.520;11.018;2023-08-24T07:20:36;42.80;37.60
31675;DHT22;18276;45.520;11.018;2023-08-24T07:23:03;42.90;36.40
31675;DHT22;18276;45.520;11.018;2023-08-24T07:25:30;42.80;35.90
31675;DHT22;18276;45.520;11.018;2023-08-24T07:27:57;42.80;35.90
31675;DHT22;18276;45.520;11.018;2023-08-24T07:30:25;43.00;36.10
31675;DHT22;18276;45.520;11.018;2023-08-24T07:33:00;43.50;36.10
31675;DHT22;18276;45.520;11.018;2023-08-24T07:35:29;43.80;35.20
31675;DHT22;18276;45.520;11.018;2023-08-24T07:37:56;44.00;33.70
31675;DHT22;18276;45.520;11.018;2023-08-24T07:40:22;43.90;33.20
31675;DHT22;18276;45.520;11.018;2023-08-24T07:42:51;43.70;33.10
31675;DHT22;18276;45.520;11.018;2023-08-24T07:45:21;43.60;33.60
31675;DHT22;18276;45.520;11.018;2023-08-24T07:47:49;43.50;33.30
31675;DHT22;18276;45.520;11.018;2023-08-24T07:50:17;43.60;33.70
31675;DHT22;18276;45.520;11.018;2023-08-24T07:52:44;43.60;33.70
31675;DHT22;18276;45.520;11.018;2023-08-24T07:55:11;43.50;33.70
31675;DHT22;18276;45.520;11.018;2023-08-24T07:57:38;43.40;33.80
31675;DHT22;18276;45.520;11.018;2023-08-24T08:00:05;43.10;34.10
31675;DHT22;18276;45.520;11.018;2023-08-24T08:02:41;43.00;34.30
31675;DHT22;18276;45.520;11.018;2023-08-24T08:05:08;43.00;34.30
31675;DHT22;18276;45.520;11.018;2023-08-24T08:07:37;43.20;34.40
31675;DHT22;18276;45.520;11.018;2023-08-24T08:10:04;43.30;34.10
31675;DHT22;18276;45.520;11.018;2023-08-24T08:12:31;43.20;34.10
31675;DHT22;18276;45.520;11.018;2023-08-24T08:14:59;43.30;34.60
31675;DHT22;18276;45.520;11.018;2023-08-24T08:17:26;43.40;34.10
31675;DHT22;18276;45.520;11.018;2023-08-24T08:19:54;43.50;33.50
31675;DHT22;18276;45.520;11.018;2023-08-24T08:22:22;43.30;33.50
31675;DHT22;18276;45.520;11.018;2023-08-24T08:24:49;43.10;34.10
31675;DHT22;18276;45.520;11.018;2023-08-24T08:27:17;43.30;34.50
31675;DHT22;18276;45.520;11.018;2023-08-24T08:29:43;43.50;33.90
31675;DHT22;18276;45.520;11.018;2023-08-24T08:32:10;43.80;33.40
31675;DHT22;18276;45.520;11.018;2023-08-24T08:34:39;43.90;33.20
31675;DHT22;18276;45.520;11.018;2023-08-24T08:37:06;44.10;33.10
31675;DHT22;18276;45.520;11.018;2023-08-24T08:39:33;44.20;32.60
31675;DHT22;18276;45.520;11.018;2023-08-24T08:42:00;44.20;32.50
31675;DHT22;18276;45.520;11.018;2023-08-24T08:44:31;43.90;32.60
31675;DHT22;18276;45.520;11.018;2023-08-24T08:46:58;43.70;32.80
31675;DHT22;18276;45.520;11.018;2023-08-24T08:49:26;43.30;33.20
31675;DHT22;18276;45.520;11.018;2023-08-24T08:51:53;43.00;33.70
31675;DHT22;18276;45.520;11.018;2023-08-24T08:54:20;42.70;34.00
31675;DHT22;18276;45.520;11.018;2023-08-24T08:56:47;42.50;34.70
31675;DHT22;18276;45.520;11.018;2023-08-24T08:59:13;42.40;34.40
31675;DHT22;18276;45.520;11.018;2023-08-24T09:01:41;42.60;34.60
31675;DHT22;18276;45.520;11.018;2023-08-24T09:04:08;43.10;34.00
31675;DHT22;18276;45.520;11.018;2023-08-24T09:06:35;43.20;33.90
31675;DHT22;18276;45.520;11.018;2023-08-24T09:09:02;43.50;33.50
31675;DHT22;18276;45.520;11.018;2023-08-24T09:11:29;43.50;33.40
31675;DHT22;18276;45.520;11.018;2023-08-24T09:13:56;43.50;33.20
31675;DHT22;18276;45.520;11.018;2023-08-24T09:16:23;43.40;33.40
31675;DHT22;18276;45.520;11.018;2023-08-24T09:18:55;43.20;33.70
31675;DHT22;18276;45.520;11.018;2023-08-24T09:21:23;43.20;33.70
31675;DHT22;18276;45.520;11.018;2023-08-24T09:23:53;43.40;33.50
31675;DHT22;18276;45.520;11.018;2023-08-24T09:26:31;43.70;33.20
31675;DHT22;18276;45.520;11.018;2023-08-24T09:28:59;43.80;32.90
31675;DHT22;18276;45.520;11.018;2023-08-24T09:31:36;44.00;33.00
31675;DHT22;18276;45.520;11.018;2023-08-24T09:34:03;44.30;32.10
31675;DHT22;18276;45.520;11.018;2023-08-24T09:36:31;44.50;31.90
31675;DHT22;18276;45.520;11.018;2023-08-24T09:38:59;44.20;32.20
31675;DHT22;18276;45.520;11.018;2023-08-24T09:41:43;44.10;32.70
31675;DHT22;18276;45.520;11.018;2023-08-24T09:44:10;44.00;32.60
31675;DHT22;18276;45.520;11.018;2023-08-24T09:46:39;43.90;32.60
31675;DHT22;18276;45.520;11.018;2023-08-24T09:49:06;43.70;32.30
31675;DHT22;18276;45.520;11.018;2023-08-24T09:51:34;43.50;32.60
31675;DHT22;18276;45.520;11.018;2023-08-24T09:54:02;43.40;32.80
31675;DHT22;18276;45.520;11.018;2023-08-24T09:56:31;43.50;32.80
31675;DHT22;18276;45.520;11.018;2023-08-24T09:59:00;43.60;33.10
31675;DHT22;18276;45.520;11.018;2023-08-24T10:01:32;43.90;33.00
31675;DHT22;18276;45.520;11.018;2023-08-24T10:03:59;44.20;32.60
31675;DHT22;18276;45.520;11.018;2023-08-24T10:06:27;44.70;32.20
31675;DHT22;18276;45.520;11.018;2023-08-24T10:08:55;44.80;31.40
31675;DHT22;18276;45.520;11.018;2023-08-24T10:11:26;45.20;31.10
31675;DHT22;18276;45.520;11.018;2023-08-24T10:13:56;45.00;31.10
31675;DHT22;18276;45.520;11.018;2023-08-24T10:16:24;45.20;31.20
31675;DHT22;18276;45.520;11.018;2023-08-24T10:18:53;45.20;31.00
31675;DHT22;18276;45.520;11.018;2023-08-24T10:21:20;45.20;30.70
31675;DHT22;18276;45.520;11.018;2023-08-24T10:23:49;45.50;30.80
31675;DHT22;18276;45.520;11.018;2023-08-24T10:26:16;45.80;30.20
31675;DHT22;18276;45.520;11.018;2023-08-24T10:28:44;45.70;30.10
31675;DHT22;18276;45.520;11.018;2023-08-24T10:31:11;45.90;30.80
31675;DHT22;18276;45.520;11.018;2023-08-24T10:33:38;46.20;29.90
31675;DHT22;18276;45.520;11.018;2023-08-24T10:36:06;46.40;29.70
31675;DHT22;18276;45.520;11.018;2023-08-24T10:38:34;46.50;29.30
31675;DHT22;18276;45.520;11.018;2023-08-24T10:41:02;46.30;29.30
31675;DHT22;18276;45.520;11.018;2023-08-24T10:43:38;46.10;29.80
31675;DHT22;18276;45.520;11.018;2023-08-24T10:46:11;46.10;29.40
31675;DHT22;18276;45.520;11.018;2023-08-24T10:56:16;44.90;30.30
31675;DHT22;18276;45.520;11.018;2023-08-24T10:58:46;45.00;30.70
31675;DHT22;18276;45.520;11.018;2023-08-24T11:01:17;44.90;30.50
31675;DHT22;18276;45.520;11.018;2023-08-24T11:03:54;45.00;30.50
31675;DHT22;18276;45.520;11.018;2023-08-24T11:06:21;45.10;30.40
31675;DHT22;18276;45.520;11.018;2023-08-24T11:08:49;45.10;30.30
31675;DHT22;18276;45.520;11.018;2023-08-24T11:11:20;45.10;30.50
31675;DHT22;18276;45.520;11.018;2023-08-24T11:16:39;45.30;30.10
31675;DHT22;18276;45.520;11.018;2023-08-24T11:19:06;45.30;29.90
31675;DHT22;18276;45.520;11.018;2023-08-24T11:21:35;45.00;30.20
31675;DHT22;18276;45.520;11.018;2023-08-24T11:24:02;44.80;30.10
31675;DHT22;18276;45.520;11.018;2023-08-24T11:26:29;44.70;30.40
31675;DHT22;18276;45.520;11.018;2023-08-24T11:29:00;44.90;30.50
31675;DHT22;18276;45.520;11.018;2023-08-24T11:31:30;45.20;30.00
31675;DHT22;18276;45.520;11.018;2023-08-24T11:33:57;45.30;29.90
31675;DHT22;18276;45.520;11.018;2023-08-24T11:36:24;45.40;29.60
31675;DHT22;18276;45.520;11.018;2023-08-24T11:38:52;45.50;29.70
31675;DHT22;18276;45.520;11.018;2023-08-24T11:41:20;45.70;29.60
31675;DHT22;18276;45.520;11.018;2023-08-24T11:43:55;46.10;29.00
31675;DHT22;18276;45.520;11.018;2023-08-24T11:46:24;45.80;28.80
31675;DHT22;18276;45.520;11.018;2023-08-24T11:48:52;44.90;29.70
31675;DHT22;18276;45.520;11.018;2023-08-24T11:51:19;45.10;30.20
31675;DHT22;18276;45.520;11.018;2023-08-24T11:53:55;45.30;29.80
31675;DHT22;18276;45.520;11.018;2023-08-24T11:56:22;45.50;29.40
31675;DHT22;18276;45.520;11.018;2023-08-24T11:58:49;45.70;29.30
31675;DHT22;18276;45.520;11.018;2023-08-24T12:01:19;46.00;29.20
31675;DHT22;18276;45.520;11.018;2023-08-24T12:03:46;46.20;28.90
31675;DHT22;18276;45.520;11.018;2023-08-24T12:06:14;46.20;28.60
31675;DHT22;18276;45.520;11.018;2023-08-24T12:08:41;46.20;28.60
31675;DHT22;18276;45.520;11.018;2023-08-24T12:11:19;46.30;28.50
31675;DHT22;18276;45.520;11.018;2023-08-24T12:13:47;45.80;28.70
31675;DHT22;18276;45.520;11.018;2023-08-24T12:16:18;45.30;29.10
31675;DHT22;18276;45.520;11.018;2023-08-24T12:18:52;45.50;29.20
31675;DHT22;18276;45.520;11.018;2023-08-24T12:21:23;45.80;28.70
31675;DHT22;18276;45.520;11.018;2023-08-24T12:26:23;45.80;28.30
31675;DHT22;18276;45.520;11.018;2023-08-24T12:28:51;45.70;28.40
31675;DHT22;18276;45.520;11.018;2023-08-24T12:31:18;45.80;28.40
31675;DHT22;18276;45.520;11.018;2023-08-24T12:33:59;45.60;28.20
31675;DHT22;18276;45.520;11.018;2023-08-24T12:36:26;45.70;28.40
31675;DHT22;18276;45.520;11.018;2023-08-24T12:38:53;45.70;28.10
31675;DHT22;18276;45.520;11.018;2023-08-24T12:41:20;45.60;28.20
31675;DHT22;18276;45.520;11.018;2023-08-24T12:43:47;45.50;28.10
31675;DHT22;18276;45.520;11.018;2023-08-24T12:46:14;45.30;28.10
31675;DHT22;18276;45.520;11.018;2023-08-24T12:48:41;45.60;28.10
31675;DHT22;18276;45.520;11.018;2023-08-24T12:51:08;45.70;27.40
31675;DHT22;18276;45.520;11.018;2023-08-24T12:53:35;45.70;27.60
31675;DHT22;18276;45.520;11.018;2023-08-24T12:56:02;45.70;27.40
31675;DHT22;18276;45.520;11.018;2023-08-24T12:58:29;45.70;27.60
31675;DHT22;18276;45.520;11.018;2023-08-24T13:00:56;45.90;27.40
31675;DHT22;18276;45.520;11.018;2023-08-24T13:03:23;46.00;27.30
31675;DHT22;18276;45.520;11.018;2023-08-24T13:05:49;46.10;27.20
31675;DHT22;18276;45.520;11.018;2023-08-24T13:08:16;45.80;26.90
31675;DHT22;18276;45.520;11.018;2023-08-24T13:10:43;45.40;26.80
31675;DHT22;18276;45.520;11.018;2023-08-24T13:13:10;45.20;26.90
31675;DHT22;18276;45.520;11.018;2023-08-24T13:15:37;45.00;26.80
31675;DHT22;18276;45.520;11.018;2023-08-24T13:18:04;44.70;26.90
31675;DHT22;18276;45.520;11.018;2023-08-24T13:20:31;44.50;27.20
31675;DHT22;18276;45.520;11.018;2023-08-24T13:22:58;44.50;27.70
31675;DHT22;18276;45.520;11.018;2023-08-24T13:25:24;44.30;27.00
31675;DHT22;18276;45.520;11.018;2023-08-24T13:27:51;44.10;27.40
31675;DHT22;18276;45.520;11.018;2023-08-24T13:30:19;43.80;27.70
31675;DHT22;18276;45.520;11.018;2023-08-24T13:32:46;43.80;27.90
31675;DHT22;18276;45.520;11.018;2023-08-24T13:35:13;43.60;28.10
31675;DHT22;18276;45.520;11.018;2023-08-24T13:37:40;43.60;28.40
31675;DHT22;18276;45.520;11.018;2023-08-24T13:40:07;43.60;28.30
31675;DHT22;18276;45.520;11.018;2023-08-24T13:42:34;43.40;28.30
31675;DHT22;18276;45.520;11.018;2023-08-24T13:45:01;43.50;28.10
31675;DHT22;18276;45.520;11.018;2023-08-24T13:47:29;43.20;28.10
31675;DHT22;18276;45.520;11.018;2023-08-24T13:49:56;42.90;28.50
31675;DHT22;18276;45.520;11.018;2023-08-24T13:52:23;42.40;28.70
31675;DHT22;18276;45.520;11.018;2023-08-24T13:54:50;42.10;29.00
31675;DHT22;18276;45.520;11.018;2023-08-24T13:57:37;41.80;29.40
31675;DHT22;18276;45.520;11.018;2023-08-24T14:00:04;41.40;29.90
31675;DHT22;18276;45.520;11.018;2023-08-24T14:02:38;41.10;30.00
31675;DHT22;18276;45.520;11.018;2023-08-24T14:05:05;40.90;30.10
31675;DHT22;18276;45.520;11.018;2023-08-24T14:07:35;40.90;30.30
31675;DHT22;18276;45.520;11.018;2023-08-24T14:10:02;40.90;30.30
31675;DHT22;18276;45.520;11.018;2023-08-24T14:12:37;40.90;30.30
31675;DHT22;18276;45.520;11.018;2023-08-24T14:15:04;40.70;30.70
31675;DHT22;18276;45.520;11.018;2023-08-24T14:17:31;40.50;30.90
31675;DHT22;18276;45.520;11.018;2023-08-24T14:19:58;40.30;31.10
31675;DHT22;18276;45.520;11.018;2023-08-24T14:22:25;40.20;31.50
31675;DHT22;18276;45.520;11.018;2023-08-24T14:24:52;39.90;31.90
31675;DHT22;18276;45.520;11.018;2023-08-24T14:27:19;39.60;32.00
31675;DHT22;18276;45.520;11.018;2023-08-24T14:29:46;39.30;32.50
31675;DHT22;18276;45.520;11.018;2023-08-24T14:32:12;39.00;33.10
31675;DHT22;18276;45.520;11.018;2023-08-24T14:34:39;38.90;33.40
31675;DHT22;18276;45.520;11.018;2023-08-24T14:37:06;38.80;33.50
31675;DHT22;18276;45.520;11.018;2023-08-24T14:39:33;38.80;33.80
31675;DHT22;18276;45.520;11.018;2023-08-24T14:42:00;38.90;33.80
31675;DHT22;18276;45.520;11.018;2023-08-24T14:44:29;39.00;33.80
31675;DHT22;18276;45.520;11.018;2023-08-24T14:46:56;39.00;33.70
31675;DHT22;18276;45.520;11.018;2023-08-24T14:49:23;39.10;33.70
31675;DHT22;18276;45.520;11.018;2023-08-24T14:51:50;39.20;33.70
31675;DHT22;18276;45.520;11.018;2023-08-24T14:54:17;39.20;33.90
31675;DHT22;18276;45.520;11.018;2023-08-24T14:56:44;39.30;34.00
31675;DHT22;18276;45.520;11.018;2023-08-24T14:59:11;39.50;34.10
31675;DHT22;18276;45.520;11.018;2023-08-24T15:01:37;39.80;33.80
31675;DHT22;18276;45.520;11.018;2023-08-24T15:04:05;40.00;33.70
31675;DHT22;18276;45.520;11.018;2023-08-24T15:06:31;40.30;33.30
31675;DHT22;18276;45.520;11.018;2023-08-24T15:08:58;40.50;33.20
31675;DHT22;18276;45.520;11.018;2023-08-24T15:11:25;40.60;33.10
31675;DHT22;18276;45.520;11.018;2023-08-24T15:13:53;40.50;32.90
31675;DHT22;18276;45.520;11.018;2023-08-24T15:16:20;40.30;33.00
31675;DHT22;18276;45.520;11.018;2023-08-24T15:18:47;40.10;33.40
31675;DHT22;18276;45.520;11.018;2023-08-24T15:21:13;39.80;33.70
31675;DHT22;18276;45.520;11.018;2023-08-24T15:23:41;39.50;33.90
31675;DHT22;18276;45.520;11.018;2023-08-24T15:26:08;39.40;33.90
31675;DHT22;18276;45.520;11.018;2023-08-24T15:28:36;39.30;34.40
31675;DHT22;18276;45.520;11.018;2023-08-24T15:31:03;39.10;34.80
31675;DHT22;18276;45.520;11.018;2023-08-24T15:33:31;38.90;35.10
31675;DHT22;18276;45.520;11.018;2023-08-24T15:35:58;38.60;35.50
31675;DHT22;18276;45.520;11.018;2023-08-24T15:38:25;38.60;35.60